»·PEaware :: DAL470 KSEA-KPDX

DAL470 :: KSEA-KPDX

FLIGHT INFORMATION

Flight Status: Arrived
Operator:
Delta Air Lines
More flights by this operator :: More flights under this callsign
Pilot: Maximilliano F. (23467)
Aircraft: BOEING 737-800
(B738)
More flights by this aircraft type
Origin: KSEA Seattle-Tacoma Intl
United States
Destination: KPDX Portland Intl
United States
More flights between these airports :: More routes between these airports
Route: +SEA7 BUWZO KRATR2
File this flight plan on PilotEdge
Remarks: RMK / SIMBRIEF
Altitude:
(Current/Filed)
21,000ft
Speed:
(Current/Filed)
402kts
Departed: 17-Oct-19 05:20 PM
Arrived: 17-Oct-19 05:49 PM
Distance/Time
Traveled:
112nm/0:29
Distance/Time
To Go:
Arrived

Flight Plot

Page will automatically refresh every two minutes.

Flight plan parsing failed; only flown route is shown


Map Options




Map Legend


Flown Route
Filed Route
Departure Airport
Arrival Airport
Navaid (VOR, NDB)
Fix

Horizontal Profiles

Position Reports

Time Latitude Longitude Heading Altitude Ground
Speed
17-Oct-19 16:44 47.438660 -122.300610 279 434ft 0kts
17-Oct-19 16:45 47.438660 -122.300610 279 434ft 0kts
17-Oct-19 16:52 47.438660 -122.300610 279 434ft 0kts
17-Oct-19 16:53 47.438660 -122.300610 279 434ft 0kts
17-Oct-19 16:54 47.438660 -122.300610 279 434ft 0kts
17-Oct-19 16:55 47.438660 -122.300610 279 434ft 0kts
17-Oct-19 16:56 47.438660 -122.300610 279 434ft 0kts
17-Oct-19 16:57 47.438660 -122.300610 279 434ft 0kts
17-Oct-19 16:58 47.438660 -122.300610 279 434ft 0kts
17-Oct-19 16:59 47.438660 -122.300610 279 434ft 0kts
17-Oct-19 17:00 47.438660 -122.300610 279 434ft 0kts
17-Oct-19 17:01 47.438660 -122.300610 279 434ft 0kts
17-Oct-19 17:02 47.438660 -122.300610 279 434ft 0kts
17-Oct-19 17:03 47.438660 -122.300610 279 434ft 0kts
17-Oct-19 17:04 47.438660 -122.300610 279 434ft 0kts
17-Oct-19 17:05 47.438660 -122.300610 279 434ft 0kts
17-Oct-19 17:06 47.438660 -122.300610 279 434ft 0kts
17-Oct-19 17:07 47.438637 -122.300382 278 434ft 2kts
17-Oct-19 17:08 47.438693 -122.299706 206 434ft 1kts
17-Oct-19 17:09 47.438753 -122.299669 205 434ft 0kts
17-Oct-19 17:10 47.438714 -122.299697 206 434ft 2kts
17-Oct-19 17:11 47.437723 -122.302280 271 434ft 7kts
17-Oct-19 17:12 47.438147 -122.305430 350 434ft 12kts
17-Oct-19 17:13 47.441206 -122.306360 359 434ft 12kts
17-Oct-19 17:14 47.445658 -122.306316 0 434ft 16kts
17-Oct-19 17:15 47.451092 -122.306271 0 434ft 20kts
17-Oct-19 17:16 47.456573 -122.306214 0 434ft 19kts
17-Oct-19 17:17 47.461793 -122.306166 0 434ft 18kts
17-Oct-19 17:18 47.463555 -122.307386 218 434ft 3kts
17-Oct-19 17:19 47.454258 -122.307848 180 434ft 136kts
17-Oct-19 17:20 47.404954 -122.306654 181 2685ft 218kts
17-Oct-19 17:21 47.338730 -122.307606 186 6447ft 247kts
17-Oct-19 17:22 47.267235 -122.308113 186 10163ft 265kts
17-Oct-19 17:24 47.187017 -122.309467 185 12991ft 311kts
17-Oct-19 17:25 47.096456 -122.307187 185 16275ft 336kts
17-Oct-19 17:26 47.000441 -122.308389 187 19325ft 357kts
17-Oct-19 17:27 46.897929 -122.309810 185 20743ft 393kts
17-Oct-19 17:28 46.789239 -122.309611 185 20767ft 389kts
17-Oct-19 17:29 46.681390 -122.309588 185 20795ft 381kts
17-Oct-19 17:30 46.574384 -122.309612 186 20797ft 385kts
17-Oct-19 17:31 46.466628 -122.309623 185 20077ft 388kts
17-Oct-19 17:32 46.361484 -122.309487 185 17702ft 362kts
17-Oct-19 17:33 46.264218 -122.311904 196 15512ft 333kts
17-Oct-19 17:34 46.177322 -122.353952 206 13156ft 324kts
17-Oct-19 17:35 46.096188 -122.399233 206 11245ft 296kts
17-Oct-19 17:36 46.027306 -122.441762 227 10188ft 248kts
17-Oct-19 17:37 45.985871 -122.518713 235 8433ft 241kts
17-Oct-19 17:38 45.947035 -122.596064 235 6675ft 237kts
17-Oct-19 17:39 45.908967 -122.672074 234 5982ft 236kts
17-Oct-19 17:40 45.870118 -122.749063 234 5983ft 236kts
17-Oct-19 17:41 45.831518 -122.824961 234 4875ft 238kts
17-Oct-19 17:42 45.793156 -122.900101 232 3974ft 219kts
17-Oct-19 17:42 45.748824 -122.892088 145 3540ft 226kts
17-Oct-19 17:44 45.692947 -122.828363 144 2966ft 202kts
17-Oct-19 17:45 45.653312 -122.771781 121 2425ft 198kts
17-Oct-19 17:45 45.633235 -122.719475 121 1602ft 176kts
17-Oct-19 17:46 45.611808 -122.664273 120 738ft 151kts
17-Oct-19 17:48 45.590266 -122.608999 116 30ft 65kts
17-Oct-19 17:48 45.590046 -122.603712 61 30ft 4kts
17-Oct-19 17:49 45.590022 -122.602866 130 30ft 8kts
17-Oct-19 17:50 45.589373 -122.600983 127 30ft 3kts
17-Oct-19 17:51 45.589058 -122.599920 86 30ft 1kts
17-Oct-19 17:52 45.589027 -122.599512 80 30ft 0kts
17-Oct-19 17:53 45.589369 -122.598993 37 30ft 0kts
17-Oct-19 17:54 45.589394 -122.598965 37 30ft 0kts
17-Oct-19 17:55 45.589394 -122.598965 37 30ft 0kts
17-Oct-19 17:56 45.589394 -122.598965 37 30ft 0kts
17-Oct-19 17:57 45.589394 -122.598965 37 30ft 0kts
17-Oct-19 17:58 45.589394 -122.598965 37 30ft 0kts
17-Oct-19 17:59 45.589394 -122.598965 37 30ft 0kts

Navigation Log

Ident Type
Flight plan parsing failed, navigation log unavailable